createdAt,value
2019-02-07T00:00:18.264Z,9.84
2019-02-07T00:00:44.365Z,9.86
2019-02-07T00:01:10.478Z,9.8
2019-02-07T00:01:36.849Z,9.77
2019-02-07T00:02:02.980Z,9.8
2019-02-07T00:02:29.340Z,9.83
2019-02-07T00:02:55.448Z,9.83
2019-02-07T00:03:21.572Z,9.87
2019-02-07T00:03:47.928Z,9.86
2019-02-07T00:04:14.061Z,9.79
2019-02-07T00:04:40.195Z,9.79
2019-02-07T00:05:06.763Z,9.83
2019-02-07T00:05:32.867Z,9.73
2019-02-07T00:05:59.230Z,9.77
2019-02-07T00:06:25.342Z,9.72
2019-02-07T00:06:51.477Z,9.69
2019-02-07T00:07:17.799Z,9.68
2019-02-07T00:07:43.904Z,9.73
2019-02-07T00:08:10.013Z,9.69
2019-02-07T00:08:36.397Z,9.68
2019-02-07T00:09:02.502Z,9.66
2019-02-07T00:09:28.888Z,9.77
2019-02-07T00:09:54.993Z,9.76
2019-02-07T00:10:21.100Z,9.61
2019-02-07T00:10:47.573Z,9.72
2019-02-07T00:11:13.701Z,9.66
2019-02-07T00:11:40.049Z,9.65
2019-02-07T00:12:06.268Z,9.62
2019-02-07T00:12:32.374Z,9.59
2019-02-07T00:12:59.042Z,9.65
2019-02-07T00:13:25.173Z,9.68
2019-02-07T00:13:51.278Z,9.66
2019-02-07T00:14:17.614Z,9.58
2019-02-07T00:14:44.736Z,9.65
2019-02-07T00:15:11.277Z,9.64
2019-02-07T00:15:37.385Z,9.73
2019-02-07T00:16:03.495Z,9.66
2019-02-07T00:16:29.622Z,9.58
2019-02-07T00:16:55.732Z,9.65
2019-02-07T00:17:21.837Z,9.61
2019-02-07T00:17:48.206Z,9.64
2019-02-07T00:18:14.308Z,9.65
2019-02-07T00:18:40.618Z,9.65
2019-02-07T00:19:06.727Z,9.68
2019-02-07T00:19:32.884Z,9.68
2019-02-07T00:19:59.307Z,9.65
2019-02-07T00:20:25.472Z,9.69
2019-02-07T00:20:51.828Z,9.69
2019-02-07T00:21:17.936Z,9.72
2019-02-07T00:21:44.038Z,9.72
2019-02-07T00:22:10.485Z,9.73
2019-02-07T00:22:39.170Z,9.66
2019-02-07T00:23:03.738Z,9.65
2019-02-07T00:23:30.232Z,9.73
2019-02-07T00:23:56.337Z,9.72
2019-02-07T00:24:22.924Z,9.8
2019-02-07T00:24:51.015Z,9.84
2019-02-07T00:25:17.118Z,9.8
2019-02-07T00:25:43.253Z,9.77
2019-02-07T00:26:09.403Z,9.86
2019-02-07T00:26:35.779Z,9.82
2019-02-07T00:27:01.977Z,9.79
2019-02-07T00:27:28.090Z,9.76
2019-02-07T00:27:54.671Z,9.76
2019-02-07T00:28:20.776Z,9.73
2019-02-07T00:28:46.881Z,9.73
2019-02-07T00:29:13.299Z,9.62
2019-02-07T00:29:39.435Z,9.66
2019-02-07T00:30:05.853Z,9.66
2019-02-07T00:30:31.997Z,9.55
2019-02-07T00:30:58.118Z,9.62
2019-02-07T00:31:24.479Z,9.65
2019-02-07T00:31:50.616Z,9.59
2019-02-07T00:32:16.730Z,9.58
2019-02-07T00:32:43.118Z,9.68
2019-02-07T00:33:09.216Z,9.61
2019-02-07T00:33:36.242Z,9.64
2019-02-07T00:34:02.351Z,9.66
2019-02-07T00:34:28.457Z,9.65
2019-02-07T00:34:54.806Z,9.61
2019-02-07T00:35:20.905Z,9.66
2019-02-07T00:35:47.042Z,9.65
2019-02-07T00:36:13.168Z,9.61
2019-02-07T00:36:39.274Z,9.61
2019-02-07T00:37:05.684Z,9.58
2019-02-07T00:37:31.797Z,9.61
2019-02-07T00:37:57.896Z,9.61
2019-02-07T00:38:24.138Z,9.72
2019-02-07T00:38:50.274Z,9.68
2019-02-07T00:39:16.720Z,9.66
2019-02-07T00:39:42.828Z,9.61
2019-02-07T00:40:08.929Z,9.56
2019-02-07T00:40:35.485Z,9.69
2019-02-07T00:41:01.588Z,9.72
2019-02-07T00:41:27.895Z,9.65
2019-02-07T00:41:54.067Z,9.61
2019-02-07T00:42:20.210Z,9.54
2019-02-07T00:42:46.517Z,9.62
2019-02-07T00:43:12.615Z,9.61
2019-02-07T00:43:38.718Z,9.59
2019-02-07T00:44:05.131Z,9.56
2019-02-07T00:44:31.239Z,9.56
2019-02-07T00:44:59.633Z,9.55
2019-02-07T00:45:25.737Z,9.56
2019-02-07T00:45:51.849Z,9.62
2019-02-07T00:46:18.200Z,9.59
2019-02-07T00:46:44.309Z,9.62
2019-02-07T00:47:10.471Z,9.58
2019-02-07T00:47:36.748Z,9.62
2019-02-07T00:48:02.857Z,9.61
2019-02-07T00:48:29.197Z,9.58
2019-02-07T00:48:55.298Z,9.58
2019-02-07T00:49:21.402Z,9.64
2019-02-07T00:49:47.819Z,9.59
2019-02-07T00:50:13.928Z,9.54
2019-02-07T00:50:41.311Z,9.56
2019-02-07T00:51:07.424Z,9.56
2019-02-07T00:51:33.565Z,9.61
2019-02-07T00:52:00.126Z,9.56
2019-02-07T00:52:26.242Z,9.64
2019-02-07T00:52:52.367Z,9.58
2019-02-07T00:53:19.045Z,9.58
2019-02-07T00:53:45.096Z,9.62
2019-02-07T00:54:11.507Z,9.64
2019-02-07T00:54:37.618Z,9.61
2019-02-07T00:55:03.720Z,9.59
2019-02-07T00:55:30.092Z,9.62
2019-02-07T00:55:56.199Z,9.58
2019-02-07T00:56:22.306Z,9.55
2019-02-07T00:56:49.703Z,9.58
2019-02-07T00:57:15.803Z,9.54
2019-02-07T00:57:42.376Z,9.5
2019-02-07T00:58:08.501Z,9.51
2019-02-07T00:58:34.605Z,9.46
2019-02-07T00:59:00.901Z,9.47
2019-02-07T00:59:27.010Z,9.61
2019-02-07T00:59:53.373Z,9.55
2019-02-07T01:00:19.517Z,9.47
2019-02-07T01:00:45.614Z,9.48
2019-02-07T01:01:11.988Z,9.47
2019-02-07T01:01:38.092Z,9.5
2019-02-07T01:02:04.203Z,9.46
2019-02-07T01:02:30.630Z,9.43
2019-02-07T01:02:56.742Z,9.47
2019-02-07T01:03:23.143Z,9.4
2019-02-07T01:03:49.216Z,9.47
2019-02-07T01:04:15.330Z,9.46
2019-02-07T01:04:41.635Z,9.48
2019-02-07T01:05:07.744Z,9.48
2019-02-07T01:05:34.171Z,9.51
2019-02-07T01:06:00.510Z,9.48
2019-02-07T01:06:26.613Z,9.48
2019-02-07T01:06:53.288Z,9.46
2019-02-07T01:07:19.394Z,9.44
2019-02-07T01:07:45.505Z,9.44
2019-02-07T01:08:11.815Z,9.56
2019-02-07T01:08:37.955Z,9.54
2019-02-07T01:09:04.373Z,9.47
2019-02-07T01:09:30.484Z,9.51
2019-02-07T01:09:56.587Z,9.51
2019-02-07T01:10:22.889Z,9.55
2019-02-07T01:10:48.994Z,9.5
2019-02-07T01:11:15.107Z,9.47
2019-02-07T01:11:41.225Z,9.44
2019-02-07T01:12:07.329Z,9.5
2019-02-07T01:12:33.692Z,9.48
2019-02-07T01:12:59.884Z,9.48
2019-02-07T01:13:26.035Z,9.5
2019-02-07T01:13:52.584Z,9.47
2019-02-07T01:14:18.684Z,9.56
2019-02-07T01:14:45.016Z,9.59
2019-02-07T01:15:13.210Z,9.62
2019-02-07T01:15:39.315Z,9.61
2019-02-07T01:16:05.695Z,9.55
2019-02-07T01:16:31.806Z,9.55
2019-02-07T01:16:57.910Z,9.62
2019-02-07T01:17:24.436Z,9.51
2019-02-07T01:17:50.546Z,9.59
2019-02-07T01:18:16.897Z,9.59
2019-02-07T01:18:42.952Z,9.51
2019-02-07T01:19:09.056Z,9.61
2019-02-07T01:19:35.330Z,9.54
2019-02-07T01:20:01.439Z,9.64
2019-02-07T01:20:27.543Z,9.58
2019-02-07T01:20:54.001Z,9.54
2019-02-07T01:21:20.108Z,9.51
2019-02-07T01:21:46.362Z,9.55
2019-02-07T01:22:12.469Z,9.61
2019-02-07T01:22:38.580Z,9.55
2019-02-07T01:23:04.973Z,9.56
2019-02-07T01:23:31.113Z,9.61
2019-02-07T01:23:57.566Z,9.56
2019-02-07T01:24:23.749Z,9.61
2019-02-07T01:24:49.852Z,9.61
2019-02-07T01:25:16.456Z,9.56
2019-02-07T01:25:42.587Z,9.58
2019-02-07T01:26:08.696Z,9.58
2019-02-07T01:26:35.044Z,9.59
2019-02-07T01:27:01.139Z,9.58
2019-02-07T01:27:27.482Z,9.59
2019-02-07T01:27:53.591Z,9.58
2019-02-07T01:28:19.726Z,9.61
2019-02-07T01:28:46.007Z,9.64
2019-02-07T01:29:12.110Z,9.58
2019-02-07T01:29:38.217Z,9.61
2019-02-07T01:30:04.562Z,9.54
2019-02-07T01:30:30.672Z,9.61
2019-02-07T01:30:57.139Z,9.55
2019-02-07T01:31:23.250Z,9.54
2019-02-07T01:31:49.435Z,9.56
2019-02-07T01:32:15.854Z,9.55
2019-02-07T01:32:41.959Z,9.54
2019-02-07T01:33:08.090Z,9.58
2019-02-07T01:33:34.415Z,9.55
2019-02-07T01:34:00.530Z,9.51
2019-02-07T01:34:26.882Z,9.5
2019-02-07T01:34:52.990Z,9.54
2019-02-07T01:35:19.091Z,9.48
2019-02-07T01:35:45.490Z,9.58
2019-02-07T01:36:11.597Z,9.62
2019-02-07T01:36:37.998Z,9.62
2019-02-07T01:37:04.098Z,9.55
2019-02-07T01:37:30.211Z,9.62
2019-02-07T01:37:56.721Z,9.56
2019-02-07T01:38:22.803Z,9.58
2019-02-07T01:38:48.904Z,9.64
2019-02-07T01:39:15.341Z,9.61
2019-02-07T01:39:41.448Z,9.64
2019-02-07T01:40:08.133Z,9.64
2019-02-07T01:40:34.260Z,9.59
2019-02-07T01:41:00.364Z,9.61
2019-02-07T01:41:26.495Z,9.58
2019-02-07T01:41:52.617Z,9.56
2019-02-07T01:42:18.722Z,9.56
2019-02-07T01:42:45.062Z,9.65
2019-02-07T01:43:11.604Z,9.59
2019-02-07T01:43:38.014Z,9.64
2019-02-07T01:44:04.117Z,9.59
2019-02-07T01:44:30.252Z,9.58
2019-02-07T01:44:56.652Z,9.58
2019-02-07T01:45:23.805Z,9.48
2019-02-07T01:45:50.231Z,9.56
2019-02-07T01:46:16.340Z,9.54
2019-02-07T01:46:42.482Z,9.5
2019-02-07T01:47:08.791Z,9.47
2019-02-07T01:47:34.919Z,9.51
2019-02-07T01:48:01.032Z,9.55
2019-02-07T01:48:27.601Z,9.61
2019-02-07T01:48:53.706Z,9.54
2019-02-07T01:49:20.278Z,9.54
2019-02-07T01:49:46.379Z,9.48
2019-02-07T01:50:12.489Z,9.5
2019-02-07T01:50:38.624Z,9.51
2019-02-07T01:51:04.728Z,9.55
2019-02-07T01:51:30.839Z,9.41
2019-02-07T01:51:57.188Z,9.47
2019-02-07T01:52:23.299Z,9.43
2019-02-07T01:52:49.812Z,9.5
2019-02-07T01:53:16.002Z,9.58
2019-02-07T01:53:42.136Z,9.55
2019-02-07T01:54:08.509Z,9.47
2019-02-07T01:54:34.608Z,9.56
2019-02-07T01:55:00.976Z,9.5
2019-02-07T01:55:27.282Z,9.54
2019-02-07T01:55:53.384Z,9.51
2019-02-07T01:56:19.884Z,9.58
2019-02-07T01:56:45.996Z,9.51
2019-02-07T01:57:12.094Z,9.5
2019-02-07T01:57:38.572Z,9.47
2019-02-07T01:58:04.677Z,9.54
2019-02-07T01:58:31.020Z,9.51
2019-02-07T01:58:57.123Z,9.55
2019-02-07T01:59:23.234Z,9.48
2019-02-07T01:59:49.523Z,9.5
2019-02-07T02:00:15.633Z,9.48
2019-02-07T02:00:41.730Z,9.5
2019-02-07T02:01:08.105Z,9.43
2019-02-07T02:01:34.212Z,9.37
2019-02-07T02:02:00.981Z,9.43
2019-02-07T02:02:27.134Z,9.39
2019-02-07T02:02:53.236Z,9.34
2019-02-07T02:03:19.647Z,9.31
2019-02-07T02:03:45.751Z,9.29
2019-02-07T02:04:12.164Z,9.36
2019-02-07T02:04:38.410Z,9.37
2019-02-07T02:05:04.510Z,9.31
2019-02-07T02:05:30.992Z,9.28
2019-02-07T02:05:57.093Z,9.25
2019-02-07T02:06:23.195Z,9.25
2019-02-07T02:06:49.472Z,9.26
2019-02-07T02:07:15.608Z,9.23
2019-02-07T02:07:41.847Z,9.22
2019-02-07T02:08:07.945Z,9.22
2019-02-07T02:08:34.053Z,9.19
2019-02-07T02:09:00.363Z,9.1
2019-02-07T02:09:26.470Z,9.11
2019-02-07T02:09:52.568Z,9.14
2019-02-07T02:10:18.913Z,9.13
2019-02-07T02:10:45.065Z,9.18
2019-02-07T02:11:11.475Z,9.23
2019-02-07T02:11:37.602Z,9.23
2019-02-07T02:12:03.706Z,9.11
2019-02-07T02:12:29.855Z,9.16
2019-02-07T02:12:55.958Z,8.99
2019-02-07T02:13:22.232Z,9.06
2019-02-07T02:13:48.503Z,9.03
2019-02-07T02:14:14.612Z,9
2019-02-07T02:14:40.899Z,8.95
2019-02-07T02:15:07.034Z,8.97
2019-02-07T02:15:35.118Z,8.99
2019-02-07T02:16:01.687Z,9
2019-02-07T02:16:28.773Z,8.97
2019-02-07T02:16:55.177Z,8.87
2019-02-07T02:17:21.283Z,8.89
2019-02-07T02:17:47.422Z,8.87
2019-02-07T02:18:13.984Z,8.87
2019-02-07T02:18:40.093Z,8.88
2019-02-07T02:19:06.435Z,8.91
2019-02-07T02:19:32.643Z,8.85
2019-02-07T02:19:58.750Z,8.85
2019-02-07T02:20:25.079Z,8.85
2019-02-07T02:20:51.183Z,8.88
2019-02-07T02:21:17.297Z,8.94
2019-02-07T02:21:43.652Z,8.87
2019-02-07T02:22:09.832Z,8.88
2019-02-07T02:22:36.148Z,8.85
2019-02-07T02:23:02.305Z,8.87
2019-02-07T02:23:28.392Z,8.89
2019-02-07T02:23:54.781Z,8.88
2019-02-07T02:24:20.886Z,8.84
2019-02-07T02:24:46.994Z,8.84
2019-02-07T02:25:13.488Z,8.79
2019-02-07T02:25:39.705Z,8.87
2019-02-07T02:26:06.044Z,8.79
2019-02-07T02:26:32.184Z,8.76
2019-02-07T02:26:58.309Z,8.74
2019-02-07T02:27:24.866Z,8.74
2019-02-07T02:27:50.973Z,8.76
2019-02-07T02:28:17.117Z,8.73
2019-02-07T02:28:43.555Z,8.71
2019-02-07T02:29:09.657Z,8.71
2019-02-07T02:29:35.940Z,8.71
2019-02-07T02:30:02.046Z,8.66
2019-02-07T02:30:28.208Z,8.71
2019-02-07T02:30:54.364Z,8.61
2019-02-07T02:31:20.471Z,8.64
2019-02-07T02:31:46.901Z,8.63
2019-02-07T02:32:13.012Z,8.64
2019-02-07T02:32:39.113Z,8.6
2019-02-07T02:33:05.869Z,8.61
2019-02-07T02:33:31.971Z,8.61
2019-02-07T02:33:58.086Z,8.61
2019-02-07T02:34:24.342Z,8.63
2019-02-07T02:34:50.538Z,8.58
2019-02-07T02:35:16.900Z,8.49
2019-02-07T02:35:43.058Z,8.55
2019-02-07T02:36:09.188Z,8.53
2019-02-07T02:36:35.482Z,8.61
2019-02-07T02:37:01.656Z,8.6
2019-02-07T02:37:27.756Z,8.51
2019-02-07T02:37:53.918Z,8.51
2019-02-07T02:38:20.020Z,8.37
2019-02-07T02:38:46.390Z,8.41
2019-02-07T02:39:12.495Z,8.42
2019-02-07T02:39:38.625Z,8.37
2019-02-07T02:40:05.259Z,8.38
2019-02-07T02:40:31.399Z,8.33
2019-02-07T02:40:57.785Z,8.37
2019-02-07T02:41:24.113Z,8.45
2019-02-07T02:41:50.221Z,8.31
2019-02-07T02:42:16.527Z,8.38
2019-02-07T02:42:42.629Z,8.31
2019-02-07T02:43:08.758Z,8.28
2019-02-07T02:43:35.135Z,8.27
2019-02-07T02:44:01.270Z,8.28
2019-02-07T02:44:27.615Z,8.3
2019-02-07T02:44:53.726Z,8.3
2019-02-07T02:45:19.867Z,8.26
2019-02-07T02:45:47.977Z,8.23
2019-02-07T02:46:14.080Z,8.24
2019-02-07T02:46:40.192Z,8.15
2019-02-07T02:47:06.597Z,8.2
2019-02-07T02:47:32.702Z,8.19
2019-02-07T02:47:59.066Z,8.12
2019-02-07T02:48:25.178Z,8.1
2019-02-07T02:48:51.284Z,8.09
2019-02-07T02:49:17.441Z,8.1
2019-02-07T02:49:43.546Z,8.08
2019-02-07T02:50:09.897Z,8.06
2019-02-07T02:50:36.253Z,8.01
2019-02-07T02:51:02.388Z,8.08
2019-02-07T02:51:28.704Z,8.01
2019-02-07T02:51:54.810Z,7.98
2019-02-07T02:52:20.914Z,7.91
2019-02-07T02:52:47.191Z,7.97
2019-02-07T02:53:13.299Z,7.95
2019-02-07T02:53:39.705Z,8.01
2019-02-07T02:54:05.804Z,8
2019-02-07T02:54:31.908Z,7.97
2019-02-07T02:54:58.367Z,7.97
2019-02-07T02:55:24.525Z,7.98
2019-02-07T02:55:50.656Z,8.01
2019-02-07T02:56:16.996Z,8.03
2019-02-07T02:56:43.126Z,7.93
2019-02-07T02:57:09.836Z,7.94
2019-02-07T02:57:35.946Z,7.93
2019-02-07T02:58:02.059Z,7.91
2019-02-07T02:58:28.311Z,7.97
2019-02-07T02:58:54.423Z,7.85
2019-02-07T02:59:20.520Z,7.91
2019-02-07T02:59:46.801Z,7.95
2019-02-07T03:00:12.900Z,7.95
2019-02-07T03:00:39.231Z,7.93
2019-02-07T03:01:05.419Z,7.98
2019-02-07T03:01:31.553Z,7.98
2019-02-07T03:01:57.900Z,7.9
2019-02-07T03:02:24.002Z,7.97
2019-02-07T03:02:50.441Z,7.93
2019-02-07T03:03:16.578Z,8.05
2019-02-07T03:03:42.682Z,7.98
2019-02-07T03:04:09.068Z,7.98
2019-02-07T03:04:35.211Z,7.93
2019-02-07T03:05:01.305Z,7.94
2019-02-07T03:05:27.749Z,7.97
2019-02-07T03:05:53.850Z,7.87
2019-02-07T03:06:20.269Z,7.94
2019-02-07T03:06:46.454Z,7.8
2019-02-07T03:07:12.609Z,7.8
2019-02-07T03:07:39.045Z,7.77
2019-02-07T03:08:05.144Z,7.82
2019-02-07T03:08:31.634Z,7.85
2019-02-07T03:08:57.763Z,7.7
2019-02-07T03:09:23.867Z,7.75
2019-02-07T03:09:50.661Z,7.76
2019-02-07T03:10:16.811Z,7.72
2019-02-07T03:10:42.946Z,7.82
2019-02-07T03:11:09.342Z,7.79
2019-02-07T03:11:35.448Z,7.77
2019-02-07T03:12:01.810Z,7.82
2019-02-07T03:12:27.928Z,7.8
2019-02-07T03:12:54.034Z,7.72
2019-02-07T03:13:20.403Z,7.7
2019-02-07T03:13:46.511Z,7.7
2019-02-07T03:14:12.617Z,7.69
2019-02-07T03:14:39.069Z,7.67
2019-02-07T03:15:05.185Z,7.72
2019-02-07T03:15:31.617Z,7.7
2019-02-07T03:15:59.728Z,7.7
2019-02-07T03:16:25.840Z,7.67
2019-02-07T03:16:52.178Z,7.73
2019-02-07T03:17:18.311Z,7.69
2019-02-07T03:17:44.682Z,7.8
2019-02-07T03:18:10.792Z,7.79
2019-02-07T03:18:36.922Z,7.67
2019-02-07T03:19:03.329Z,7.73
2019-02-07T03:19:29.433Z,7.69
2019-02-07T03:19:55.539Z,7.67
2019-02-07T03:20:21.912Z,7.72
2019-02-07T03:20:48.047Z,7.76
2019-02-07T03:21:14.718Z,7.67
2019-02-07T03:21:40.829Z,7.7
2019-02-07T03:22:06.926Z,7.69
2019-02-07T03:22:33.429Z,7.73
2019-02-07T03:22:59.523Z,7.75
2019-02-07T03:23:25.633Z,7.7
2019-02-07T03:23:52.046Z,7.73
2019-02-07T03:24:18.214Z,7.72
2019-02-07T03:24:44.632Z,7.67
2019-02-07T03:25:10.760Z,7.63
2019-02-07T03:25:36.865Z,7.7
2019-02-07T03:26:03.199Z,7.69
2019-02-07T03:26:29.297Z,7.63
2019-02-07T03:26:55.623Z,7.73
2019-02-07T03:27:21.755Z,7.73
2019-02-07T03:27:47.869Z,7.69
2019-02-07T03:28:14.178Z,7.73
2019-02-07T03:28:40.334Z,7.7
2019-02-07T03:29:06.471Z,7.73
2019-02-07T03:29:32.976Z,7.72
2019-02-07T03:29:59.107Z,7.72
2019-02-07T03:30:25.628Z,7.67
2019-02-07T03:30:51.755Z,7.63
2019-02-07T03:31:17.859Z,7.67
2019-02-07T03:31:44.439Z,7.66
2019-02-07T03:32:10.682Z,7.72
2019-02-07T03:32:36.788Z,7.66
2019-02-07T03:33:03.229Z,7.63
2019-02-07T03:33:29.460Z,7.67
2019-02-07T03:33:55.780Z,7.67
2019-02-07T03:34:21.910Z,7.7
2019-02-07T03:34:48.022Z,7.6
2019-02-07T03:35:14.319Z,7.67
2019-02-07T03:35:40.467Z,7.61
2019-02-07T03:36:06.599Z,7.58
2019-02-07T03:36:32.730Z,7.63
2019-02-07T03:36:58.937Z,7.6
2019-02-07T03:37:25.362Z,7.58
2019-02-07T03:37:51.489Z,7.6
2019-02-07T03:38:17.593Z,7.63
2019-02-07T03:38:44.047Z,7.57
2019-02-07T03:39:10.155Z,7.56
2019-02-07T03:39:36.678Z,7.54
2019-02-07T03:40:02.786Z,7.5
2019-02-07T03:40:28.888Z,7.48
2019-02-07T03:40:55.221Z,7.51
2019-02-07T03:41:21.319Z,7.5
2019-02-07T03:41:47.468Z,7.51
2019-02-07T03:42:13.826Z,7.5
2019-02-07T03:42:39.956Z,7.56
2019-02-07T03:43:06.141Z,7.51
2019-02-07T03:43:32.299Z,7.54
2019-02-07T03:43:58.386Z,7.53
2019-02-07T03:44:24.796Z,7.67
2019-02-07T03:44:50.896Z,7.57
2019-02-07T03:45:17.344Z,7.58
2019-02-07T03:45:43.471Z,7.61
2019-02-07T03:46:11.581Z,7.63
2019-02-07T03:46:38.020Z,7.7
2019-02-07T03:47:04.133Z,7.67
2019-02-07T03:47:30.240Z,7.61
2019-02-07T03:47:56.623Z,7.63
2019-02-07T03:48:22.725Z,7.67
2019-02-07T03:48:48.855Z,7.66
2019-02-07T03:49:15.018Z,7.79
2019-02-07T03:49:41.123Z,7.73
2019-02-07T03:50:07.632Z,7.72
2019-02-07T03:50:33.766Z,7.75
2019-02-07T03:51:00.221Z,7.72
2019-02-07T03:51:26.496Z,7.69
2019-02-07T03:51:52.601Z,7.72
2019-02-07T03:52:19.143Z,7.7
2019-02-07T03:52:45.275Z,7.73
2019-02-07T03:53:11.384Z,7.72
2019-02-07T03:53:37.969Z,7.66
2019-02-07T03:54:04.074Z,7.75
2019-02-07T03:54:30.495Z,7.7
2019-02-07T03:54:56.657Z,7.7
2019-02-07T03:55:22.823Z,7.72
2019-02-07T03:55:49.178Z,7.67
2019-02-07T03:56:15.748Z,7.76
2019-02-07T03:56:41.853Z,7.69
2019-02-07T03:57:08.282Z,7.72
2019-02-07T03:57:34.391Z,7.72
2019-02-07T03:58:00.826Z,7.82
2019-02-07T03:58:26.936Z,7.67
2019-02-07T03:58:53.062Z,7.69
2019-02-07T03:59:19.327Z,7.67
2019-02-07T03:59:45.467Z,7.77
2019-02-07T04:00:11.713Z,7.66
2019-02-07T04:00:37.923Z,7.67
2019-02-07T04:01:04.028Z,7.7
2019-02-07T04:01:30.537Z,7.7
2019-02-07T04:01:56.642Z,7.67
2019-02-07T04:02:22.768Z,7.75
2019-02-07T04:02:50.995Z,7.8
2019-02-07T04:03:17.041Z,7.77
2019-02-07T04:03:43.489Z,7.69
2019-02-07T04:04:09.618Z,7.83
2019-02-07T04:04:35.717Z,7.67
2019-02-07T04:05:02.055Z,7.7
2019-02-07T04:05:28.158Z,7.77
2019-02-07T04:05:54.321Z,7.79
2019-02-07T04:06:20.611Z,7.82
2019-02-07T04:06:46.718Z,7.82
2019-02-07T04:07:13.121Z,7.8
2019-02-07T04:07:39.300Z,7.75
2019-02-07T04:08:05.425Z,7.83
2019-02-07T04:08:31.730Z,7.77
2019-02-07T04:08:57.838Z,7.8
2019-02-07T04:09:24.222Z,7.79
2019-02-07T04:09:50.333Z,7.79
2019-02-07T04:10:16.433Z,7.79
2019-02-07T04:10:43.292Z,7.77
2019-02-07T04:11:09.458Z,7.83
2019-02-07T04:11:35.567Z,7.85
2019-02-07T04:12:02.008Z,7.88
2019-02-07T04:12:28.109Z,7.93
2019-02-07T04:12:54.455Z,7.91
2019-02-07T04:13:20.564Z,7.94
2019-02-07T04:13:46.673Z,7.9
2019-02-07T04:14:12.993Z,7.98
2019-02-07T04:14:39.129Z,7.95
2019-02-07T04:15:05.549Z,7.97
2019-02-07T04:15:31.744Z,7.97
2019-02-07T04:15:57.884Z,8
2019-02-07T04:16:25.993Z,7.9
2019-02-07T04:16:53.170Z,7.93
2019-02-07T04:17:19.291Z,7.94
2019-02-07T04:17:45.685Z,7.95
2019-02-07T04:18:11.814Z,7.91
2019-02-07T04:18:38.163Z,7.93
2019-02-07T04:19:04.268Z,7.94
2019-02-07T04:19:30.429Z,7.98
2019-02-07T04:19:56.578Z,7.98
2019-02-07T04:20:22.842Z,7.98
2019-02-07T04:20:49.157Z,8
2019-02-07T04:21:15.407Z,7.98
2019-02-07T04:21:41.533Z,7.95
2019-02-07T04:22:08.069Z,8.01
2019-02-07T04:22:34.170Z,8.01
2019-02-07T04:23:00.278Z,7.98
2019-02-07T04:23:26.689Z,8.08
2019-02-07T04:23:52.792Z,8.08
2019-02-07T04:24:19.105Z,8.1
2019-02-07T04:24:45.231Z,8.06
2019-02-07T04:25:11.398Z,8.13
2019-02-07T04:25:37.804Z,8.13
2019-02-07T04:26:03.944Z,8.1
2019-02-07T04:26:30.114Z,8.09
2019-02-07T04:26:56.459Z,8.08
2019-02-07T04:27:22.621Z,8.09
2019-02-07T04:27:49.039Z,8.09
2019-02-07T04:28:15.153Z,8.09
2019-02-07T04:28:41.284Z,8.09
2019-02-07T04:29:07.752Z,8.13
2019-02-07T04:29:33.852Z,8.12
2019-02-07T04:30:00.395Z,8.15
2019-02-07T04:30:26.593Z,8.15
2019-02-07T04:30:52.737Z,8.15
2019-02-07T04:31:19.272Z,8.18
2019-02-07T04:31:45.429Z,8.13
2019-02-07T04:32:11.532Z,8.13
2019-02-07T04:32:38.130Z,8.16
2019-02-07T04:33:04.232Z,8.13
2019-02-07T04:33:31.548Z,8.15
2019-02-07T04:33:57.690Z,8.16
2019-02-07T04:34:23.847Z,8.2
2019-02-07T04:34:50.376Z,8.13
2019-02-07T04:35:16.509Z,8.16
2019-02-07T04:35:43.599Z,8.16
2019-02-07T04:36:09.898Z,8.13
2019-02-07T04:36:36.012Z,8.13
2019-02-07T04:37:02.424Z,8.12
2019-02-07T04:37:28.526Z,8.2
2019-02-07T04:37:54.634Z,8.1
2019-02-07T04:38:20.759Z,8.15
2019-02-07T04:38:46.868Z,8.12
2019-02-07T04:39:13.053Z,8.13
2019-02-07T04:39:39.217Z,8.1
2019-02-07T04:40:05.383Z,8.16
2019-02-07T04:40:32.686Z,8.15
2019-02-07T04:40:58.792Z,8.15
2019-02-07T04:41:24.901Z,8.12
2019-02-07T04:41:51.254Z,8.1
2019-02-07T04:42:17.364Z,8.08
2019-02-07T04:42:43.699Z,8.1
2019-02-07T04:43:09.809Z,8.13
2019-02-07T04:43:35.939Z,8.12
2019-02-07T04:44:02.226Z,8.18
2019-02-07T04:44:28.333Z,8.15
2019-02-07T04:44:54.665Z,8.18
2019-02-07T04:45:20.804Z,8.13
2019-02-07T04:45:46.906Z,8.18
2019-02-07T04:46:13.407Z,8.13
2019-02-07T04:46:39.564Z,8.16
2019-02-07T04:47:05.666Z,8.15
2019-02-07T04:47:32.255Z,8.19
2019-02-07T04:47:58.366Z,8.15
2019-02-07T04:48:24.720Z,8.16
2019-02-07T04:48:50.852Z,8.1
2019-02-07T04:49:16.955Z,8.05
2019-02-07T04:49:43.299Z,8.16
2019-02-07T04:50:09.401Z,8.16
2019-02-07T04:50:35.539Z,8.15
2019-02-07T04:51:01.899Z,8.15
2019-02-07T04:51:28.027Z,8.18
2019-02-07T04:51:54.343Z,8.16
2019-02-07T04:52:20.439Z,8.2
2019-02-07T04:52:46.544Z,8.24
2019-02-07T04:53:13.889Z,8.24
2019-02-07T04:53:39.996Z,8.27
2019-02-07T04:54:06.418Z,8.3
2019-02-07T04:54:32.526Z,8.28
2019-02-07T04:54:58.624Z,8.27
2019-02-07T04:55:25.159Z,8.24
2019-02-07T04:55:51.261Z,8.26
2019-02-07T04:56:17.369Z,8.18
2019-02-07T04:56:43.790Z,8.19
2019-02-07T04:57:09.927Z,8.16
2019-02-07T04:57:36.481Z,8.16
2019-02-07T04:58:02.586Z,8.16
2019-02-07T04:58:28.686Z,8.1
2019-02-07T04:58:55.046Z,8.16
2019-02-07T04:59:21.230Z,8.19
2019-02-07T04:59:47.384Z,8.16
2019-02-07T05:00:14.763Z,8.18
2019-02-07T05:00:40.899Z,8.2
2019-02-07T05:01:07.241Z,8.2
2019-02-07T05:01:33.349Z,8.23
2019-02-07T05:01:59.455Z,8.24
2019-02-07T05:02:25.859Z,8.2
2019-02-07T05:02:51.959Z,8.27
2019-02-07T05:03:18.390Z,8.28
2019-02-07T05:03:44.495Z,8.2
2019-02-07T05:04:10.629Z,8.2
2019-02-07T05:04:36.788Z,8.15
2019-02-07T05:05:02.895Z,8.23
2019-02-07T05:05:29.093Z,8.18
2019-02-07T05:05:55.470Z,8.23
2019-02-07T05:06:21.574Z,8.19
2019-02-07T05:06:48.142Z,8.2
2019-02-07T05:07:14.241Z,8.2
2019-02-07T05:07:40.405Z,8.18
2019-02-07T05:08:06.871Z,8.18
2019-02-07T05:08:33.006Z,8.2
2019-02-07T05:08:59.108Z,8.19
2019-02-07T05:09:25.478Z,8.15
2019-02-07T05:09:51.631Z,8.16
2019-02-07T05:10:17.900Z,8.23
2019-02-07T05:10:44.032Z,8.19
2019-02-07T05:11:10.139Z,8.2
2019-02-07T05:11:36.498Z,8.27
2019-02-07T05:12:02.609Z,8.3
2019-02-07T05:12:28.986Z,8.27
2019-02-07T05:12:55.115Z,8.23
2019-02-07T05:13:21.220Z,8.16
2019-02-07T05:13:47.803Z,8.2
2019-02-07T05:14:13.939Z,8.2
2019-02-07T05:14:40.051Z,8.18
2019-02-07T05:15:06.652Z,8.16
2019-02-07T05:15:32.792Z,8.3
2019-02-07T05:15:59.398Z,8.3
2019-02-07T05:16:25.506Z,8.24
2019-02-07T05:16:54.189Z,8.3
2019-02-07T05:17:20.570Z,8.3
2019-02-07T05:17:46.712Z,8.33
2019-02-07T05:18:13.039Z,8.24
2019-02-07T05:18:39.158Z,8.3
2019-02-07T05:19:05.268Z,8.36
2019-02-07T05:19:31.549Z,8.3
2019-02-07T05:19:57.699Z,8.33
2019-02-07T05:20:23.829Z,8.28
2019-02-07T05:20:50.114Z,8.3
2019-02-07T05:21:16.219Z,8.33
2019-02-07T05:21:42.590Z,8.36
2019-02-07T05:22:08.694Z,8.33
2019-02-07T05:22:34.808Z,8.31
2019-02-07T05:23:01.203Z,8.41
2019-02-07T05:23:27.340Z,8.3
2019-02-07T05:23:53.473Z,8.2
2019-02-07T05:24:19.862Z,8.28
2019-02-07T05:24:45.992Z,8.33
2019-02-07T05:25:12.447Z,8.3
2019-02-07T05:25:38.551Z,8.31
2019-02-07T05:26:04.662Z,8.33
2019-02-07T05:26:31.112Z,8.31
2019-02-07T05:26:57.278Z,8.3
2019-02-07T05:27:23.382Z,8.36
2019-02-07T05:27:50.498Z,8.34
2019-02-07T05:28:16.631Z,8.31
2019-02-07T05:28:42.988Z,8.41
2019-02-07T05:29:09.098Z,8.33
2019-02-07T05:29:35.204Z,8.34
2019-02-07T05:30:01.709Z,8.38
2019-02-07T05:30:27.823Z,8.33
2019-02-07T05:30:54.086Z,8.3
2019-02-07T05:31:20.215Z,8.3
2019-02-07T05:31:46.317Z,8.28
2019-02-07T05:32:12.516Z,8.3
2019-02-07T05:32:39.604Z,8.31
2019-02-07T05:33:05.710Z,8.33
2019-02-07T05:33:32.116Z,8.34
2019-02-07T05:33:58.226Z,8.3
2019-02-07T05:34:24.751Z,8.3
2019-02-07T05:34:50.855Z,8.36
2019-02-07T05:35:16.960Z,8.34
2019-02-07T05:35:43.518Z,8.26
2019-02-07T05:36:09.673Z,8.33
2019-02-07T05:36:35.805Z,8.31
2019-02-07T05:37:03.222Z,8.36
2019-02-07T05:37:29.403Z,8.3
2019-02-07T05:37:55.713Z,8.31
2019-02-07T05:38:21.815Z,8.31
2019-02-07T05:38:47.918Z,8.33
2019-02-07T05:39:14.323Z,8.36
2019-02-07T05:39:40.431Z,8.44
2019-02-07T05:40:06.824Z,8.3
2019-02-07T05:40:32.927Z,8.31
2019-02-07T05:40:59.031Z,8.31
2019-02-07T05:41:25.522Z,8.31
2019-02-07T05:41:51.630Z,8.42
2019-02-07T05:42:17.729Z,8.34
2019-02-07T05:42:44.208Z,8.38
2019-02-07T05:43:10.368Z,8.41
2019-02-07T05:43:36.842Z,8.41
2019-02-07T05:44:03.936Z,8.41
2019-02-07T05:44:30.126Z,8.42
2019-02-07T05:44:56.571Z,8.44
2019-02-07T05:45:22.681Z,8.31
2019-02-07T05:45:49.038Z,8.37
2019-02-07T05:46:15.331Z,8.44
2019-02-07T05:46:50.602Z,8.42
2019-02-07T05:47:08.794Z,8.33
2019-02-07T05:47:34.897Z,8.38
2019-02-07T05:48:01.010Z,8.48
2019-02-07T05:48:27.450Z,8.48
2019-02-07T05:48:53.552Z,8.42
2019-02-07T05:49:20.058Z,8.37
2019-02-07T05:49:46.161Z,8.33
2019-02-07T05:50:12.298Z,8.37
2019-02-07T05:50:38.692Z,8.37
2019-02-07T05:51:04.839Z,8.38
2019-02-07T05:51:30.947Z,8.38